Weather at Luss Seaplane Terminal

Public forecast

Using degrees Celsius for public forecast. Weather courtesy of forecast.io.

Closest aviation weather report (METAR) to Luss Seaplane Terminal

Report is more than 6 hours old.

Closest report is Glasgow International Airport, 16.6 nm (30.8 km) SSE. Retrieved 2022/09/17 18:50 UTC (18 days ago):

EGPF 171850Z AUTO 26007KT 9999 SCT041 12/08 Q1022

Closest aviation forecast (TAF) to Luss Seaplane Terminal

Forecast is more than 12 hours old.

Closest forecast is Glasgow International Airport, 16.6 nm (30.8 km) SSE. Retrieved 2022/09/17 18:00 UTC (18 days ago):

TAF EGPF 171658Z 1718/1818 28009KT 9999 SCT040 TEMPO 1723/1806 7000 -SHRA PROB30 TEMPO 1800/1804 4500 SHRA BKN012 PROB30 TEMPO 1812/1816 7000 -SHRA